Ek-star — LAMT5 — position and weather

sailwx.info

Track history (hours):
 
Tides and Currents Weather Stations Pressure Air Temp Water Temp Dewpoint Dewpoint Depression Visibility Wind Speed Wind Dir Waves Ship Positions

Ek-star

Last reported at 2016-May-31 07:28 UTC. Time now 2016-May-31 07:51 UTC.
Position N 55°06' E 014°14'.

Length 135 m; draft 6.1 m.

Type: Tanker. MMSI: 257433000.

Date/timePositionNaut miles runAvg speedWind from/ knotsBaromVisibWave heightAir tempDewpointWater temp
2016-May-31 07:28N 55°06' E 014°14'1412.4
2016-May-31 06:18N 54°58' E 013°53'3812.5
2016-May-31 03:16N 54°47' E 012°50'1512.5
2016-May-31 02:05N 54°38' E 012°29'712.4
2016-May-31 01:29N 54°34' E 012°19'1111.5
2016-May-31 00:33N 54°25' E 012°09'1211.7
2016-May-30 23:34N 54°25' E 011°49'1211.7
2016-May-30 22:34N 54°29' E 011°31'1211.6
2016-May-30 21:33N 54°35' E 011°13'1111.1
2016-May-30 20:33N 54°35' E 010°53'1212.1
2016-May-30 19:34N 54°33' E 010°33'1410.9
2016-May-30 18:15N 54°25' E 010°13'4 5.4
2016-May-30 17:33N 54°22' E 010°08'1 1.4
2016-May-30 16:33N 54°22' E 010°06'6 6.1
2016-May-30 15:34N 54°20' E 009°56'25 5.0
2016-May-30 10:30N 54°06' E 009°20'4 4.4
2016-May-30 09:33N 54°02' E 009°18'7 6.5
2016-May-30 08:33N 53°57' E 009°13'4 4.0
2016-May-30 07:33N 53°54' E 009°09'2 2.2
2016-May-30 06:33N 53°53' E 009°05'1313.0
2016-May-30 05:33N 53°52' E 008°43'1413.5
2016-May-30 04:33N 53°59' E 008°23'1312.9
2016-May-30 03:33N 53°59' E 008°01'10 9.6
2016-May-30 02:33N 53°56' E 007°45'9 9.6
2016-May-30 01:34N 53°54' E 007°30'9 9.3
2016-May-30 00:33N 53°52' E 007°14'10 9.7
2016-May-29 23:34N 53°50' E 006°58'9 8.7
2016-May-29 22:33N 53°48' E 006°44'8 8.3
2016-May-29 21:33N 53°46' E 006°30'8 8.2
2016-May-29 20:33N 53°44' E 006°17'8 8.4
2016-May-29 19:33N 53°41' E 006°03'8 8.4
2016-May-29 18:33N 53°39' E 005°50'8 8.3
2016-May-29 17:33N 53°36' E 005°37'8 8.2
2016-May-29 16:33N 53°34' E 005°24'9 8.6
2016-May-29 15:33N 53°31' E 005°10'1211.7
2016-May-29 14:30N 53°26' E 004°51'1111.0
2016-May-29 13:28N 53°18' E 004°38'1212.0
2016-May-29 12:29N 53°07' E 004°29'1312.3
2016-May-29 11:25N 52°56' E 004°18'1112.7
2016-May-29 10:32N 52°46' E 004°09'3213.1
2016-May-29 08:07N 52°16' E 003°52'814.0
2016-May-29 07:33N 52°08' E 003°55'1111.1
2016-May-29 06:33N 51°59' E 004°05'1110.8
2016-May-29 05:32N 51°54' E 004°21'1 0.6
2016-May-29 04:17N 51°54' E 004°22'0 0.0
2016-May-29 03:32N 51°54' E 004°22'0 0.0
2016-May-29 02:11N 51°54' E 004°22'0 0.0
2016-May-29 01:33N 51°54' E 004°22'0 0.0
2016-May-29 00:31N 51°54' E 004°22'0 0.0
2016-May-28 23:33N 51°54' E 004°22'0 0.0
2016-May-28 22:34N 51°54' E 004°22'0 0.0
2016-May-28 21:32N 51°54' E 004°22'0 0.0
2016-May-28 20:32N 51°54' E 004°22'0 0.0
2016-May-28 19:32N 51°54' E 004°22'0 0.0
2016-May-28 18:16N 51°54' E 004°22'0 0.0
2016-May-28 15:24N 51°54' E 004°22'4 4.8
2016-May-28 14:30N 51°55' E 004°15'7 7.2
2016-May-28 13:32N 51°58' E 004°06'4 3.1
2016-May-28 12:20N 51°56' E 004°11'0 0.0
2016-May-28 10:23N 51°56' E 004°11'0 0.0
2016-May-28 09:23N 51°56' E 004°11'0 0.0
2016-May-28 08:33N 51°56' E 004°11'0 0.0
2016-May-28 06:09N 51°56' E 004°11'0 0.0
2016-May-28 04:30N 51°56' E 004°11'0 0.0
2016-May-28 03:28N 51°56' E 004°11'0 0.0
2016-May-28 02:32N 51°56' E 004°11'0 0.0
2016-May-28 01:33N 51°56' E 004°11'0 0.0
2016-May-28 00:26N 51°56' E 004°11'0 0.0
2016-May-27 23:33N 51°56' E 004°11'0 0.0
2016-May-27 22:30N 51°56' E 004°11'0 0.0
2016-May-27 21:22N 51°56' E 004°11'1 0.9
2016-May-27 20:31N 51°57' E 004°10'1111.0
2016-May-27 19:34N 52°01' E 003°54'10 9.7
2016-May-27 18:33N 52°08' E 003°42'0 0.1
2016-May-27 17:25N 52°08' E 003°42'0 0.2
2016-May-27 16:25N 52°08' E 003°42'0 0.1
2016-May-27 15:25N 52°08' E 003°42'0 0.0
2016-May-27 14:31N 52°08' E 003°42'0 0.1
2016-May-27 13:31N 52°08' E 003°42'1111.0
2016-May-27 12:33N 52°02' E 003°57'2 2.1
2016-May-27 11:33N 51°60' E 003°58'10 9.6
2016-May-27 10:33N 52°06' E 003°46'4 3.0
2016-May-27 09:22N 52°09' E 003°44'0 0.2
2016-May-27 08:28N 52°09' E 003°44'0 0.0
2016-May-27 07:07N 52°09' E 003°44'0 0.0
2016-May-27 05:19N 52°09' E 003°44'0 0.0
2016-May-27 04:32N 52°09' E 003°44'0 0.0
2016-May-26 23:24N 52°09' E 003°44'0 0.0
2016-May-26 22:32N 52°09' E 003°44'0 0.0
2016-May-26 21:32N 52°09' E 003°44'0 0.0
2016-May-26 20:32N 52°09' E 003°44'0 0.1
2016-May-26 19:32N 52°09' E 003°44'0 0.0
2016-May-26 18:32N 52°09' E 003°44'0 0.0
2016-May-26 17:32N 52°09' E 003°44'0 0.0
2016-May-26 16:26N 52°09' E 003°44'0 0.2
2016-May-26 15:32N 52°09' E 003°44'0 0.1
2016-May-26 14:32N 52°09' E 003°44'0 0.0
2016-May-26 13:20N 52°09' E 003°44'0 0.0
2016-May-26 12:17N 52°09' E 003°44'0 0.0
2016-May-26 11:26N 52°09' E 003°44'0 0.0
2016-May-26 10:29N 52°09' E 003°44'0 0.0
2016-May-26 08:32N 52°09' E 003°44'0 0.1
2016-May-26 07:32N 52°09' E 003°44'0 0.0
2016-May-26 06:23N 52°09' E 003°44'0 0.0
2016-May-26 05:29N 52°09' E 003°44'0 0.0
2016-May-26 04:08N 52°09' E 003°44'0 0.0
2016-May-25 19:22N 52°09' E 003°44'0 0.0
2016-May-25 18:28N 52°09' E 003°44'0 0.0
2016-May-25 17:28N 52°09' E 003°44'2 2.5
2016-May-25 16:34N 52°11' E 003°46'9311.6
2016-May-25 08:33N 53°33' E 004°57'1110.8
2016-May-25 07:33N 53°37' E 005°13'1111.1
2016-May-25 06:33N 53°40' E 005°31'1212.2
2016-May-25 05:33N 53°44' E 005°51'1313.0
2016-May-25 04:33N 53°48' E 006°12'1313.0
2016-May-25 03:33N 53°52' E 006°33'1312.7
2016-May-25 02:34N 53°55' E 006°54'1212.1
2016-May-25 01:33N 53°57' E 007°14'1211.5
2016-May-25 00:33N 54°00' E 007°33'1111.2
2016-May-24 23:33N 54°02' E 007°52'1111.1
2016-May-24 22:33N 54°01' E 008°11'1210.9
2016-May-24 21:30N 53°58' E 008°30'1313.5
2016-May-24 20:33N 53°51' E 008°47'1313.3
2016-May-24 19:33N 53°54' E 009°09'0 0.2
2016-May-24 18:33N 53°54' E 009°09'7 6.5
2016-May-24 17:33N 53°59' E 009°16'6 5.7
2016-May-24 16:33N 54°04' E 009°19'9 4.6
2016-May-24 14:33N 54°11' E 009°29'7 6.9
2016-May-24 13:31N 54°16' E 009°38'8 7.9
2016-May-24 12:33N 54°21' E 009°47'6 6.2
2016-May-24 11:34N 54°21' E 009°57'6 6.1
2016-May-24 10:33N 54°22' E 010°07'1 0.8
2016-May-24 09:33N 54°22' E 010°09'9 8.6
2016-May-24 08:33N 54°29' E 010°17'1312.7
2016-May-24 07:33N 54°35' E 010°36'1312.9
2016-May-24 06:33N 54°36' E 010°59'1212.2
2016-May-24 05:33N 54°33' E 011°19'1312.7
2016-May-24 04:33N 54°28' E 011°39'1312.7
2016-May-24 03:33N 54°26' E 012°01'1110.6
2016-May-24 02:30N 54°34' E 012°14'1212.3
2016-May-24 01:33N 54°42' E 012°29'2512.7
2016-May-23 23:33N 54°53' E 013°08'1312.8
2016-May-23 22:34N 54°57' E 013°29'1312.8
2016-May-23 21:33N 55°02' E 013°50'1212.2
2016-May-23 20:34N 55°08' E 014°09'1312.8
2016-May-23 19:33N 55°18' E 014°23'1312.8
2016-May-23 18:34N 55°27' E 014°38'1313.0
2016-May-23 17:33N 55°34' E 014°58'1312.9
2016-May-23 16:34N 55°40' E 015°18'1312.8
2016-May-23 15:31N 55°47' E 015°38'1212.7
2016-May-23 14:33N 55°53' E 015°57'29412.7
2016-May-22 15:30N 59°25' E 022°18'1212.6
2016-May-22 14:33N 59°31' E 022°37'1312.8
2016-May-22 13:33N 59°35' E 023°02'1313.0
2016-May-22 12:33N 59°39' E 023°26'1312.8
2016-May-22 11:33N 59°43' E 023°50'1612.9
2016-May-22 10:17N 59°47' E 024°22'8612.8
2016-May-22 03:33N 60°01' E 027°11'1313.4
2016-May-22 02:33N 60°09' E 027°34'1211.9
2016-May-22 01:33N 60°11' E 027°58'1312.9
2016-May-22 00:33N 60°06' E 028°22'1312.9
2016-May-21 23:33N 60°03' E 028°47'2512.5
2016-May-21 21:32N 60°00' E 029°37'1111.2
2016-May-21 20:33N 59°56' E 029°57'8 8.2
2016-May-21 19:32N 59°52' E 030°12'1 0.8
2016-May-21 18:33N 59°52' E 030°13'0 0.0
2016-May-21 17:33N 59°52' E 030°13'0 0.0
2016-May-21 16:33N 59°52' E 030°13'0 0.0
2016-May-21 15:33N 59°52' E 030°13'0 0.0
2016-May-21 14:33N 59°52' E 030°13'0 0.0
2016-May-21 13:33N 59°52' E 030°13'0 0.0
2016-May-21 12:33N 59°52' E 030°13'0 0.0
2016-May-21 11:33N 59°52' E 030°13'0 0.0
2016-May-21 10:33N 59°52' E 030°13'0 0.0
2016-May-21 09:33N 59°52' E 030°13'0 0.0
2016-May-21 08:33N 59°52' E 030°13'0 0.0
2016-May-21 07:33N 59°52' E 030°13'  
Track history (hours):
 
Tides and Currents Weather Stations Pressure Air Temp Water Temp Dewpoint Dewpoint Depression Visibility Wind Speed Wind Dir Waves Ship Positions

Ek-star

Last reported at 2016-May-31 07:28 UTC. Time now 2016-May-31 07:51 UTC.
Position N 55°06' E 014°14'.

Length 135 m; draft 6.1 m.

Type: Tanker. MMSI: 257433000.

Date/timePositionNaut miles runAvg speedWind from/ knotsBaromVisibWave heightAir tempDewpointWater temp
2016-May-31 07:28N 55°06' E 014°14'1412.4
2016-May-31 06:18N 54°58' E 013°53'3812.5
2016-May-31 03:16N 54°47' E 012°50'1512.5
2016-May-31 02:05N 54°38' E 012°29'712.4
2016-May-31 01:29N 54°34' E 012°19'1111.5
2016-May-31 00:33N 54°25' E 012°09'1211.7
2016-May-30 23:34N 54°25' E 011°49'1211.7
2016-May-30 22:34N 54°29' E 011°31'1211.6
2016-May-30 21:33N 54°35' E 011°13'1111.1
2016-May-30 20:33N 54°35' E 010°53'1212.1
2016-May-30 19:34N 54°33' E 010°33'1410.9
2016-May-30 18:15N 54°25' E 010°13'4 5.4
2016-May-30 17:33N 54°22' E 010°08'1 1.4
2016-May-30 16:33N 54°22' E 010°06'6 6.1
2016-May-30 15:34N 54°20' E 009°56'25 5.0
2016-May-30 10:30N 54°06' E 009°20'4 4.4
2016-May-30 09:33N 54°02' E 009°18'7 6.5
2016-May-30 08:33N 53°57' E 009°13'4 4.0
2016-May-30 07:33N 53°54' E 009°09'2 2.2
2016-May-30 06:33N 53°53' E 009°05'1313.0
2016-May-30 05:33N 53°52' E 008°43'1413.5
2016-May-30 04:33N 53°59' E 008°23'1312.9
2016-May-30 03:33N 53°59' E 008°01'10 9.6
2016-May-30 02:33N 53°56' E 007°45'9 9.6
2016-May-30 01:34N 53°54' E 007°30'9 9.3
2016-May-30 00:33N 53°52' E 007°14'10 9.7
2016-May-29 23:34N 53°50' E 006°58'9 8.7
2016-May-29 22:33N 53°48' E 006°44'8 8.3
2016-May-29 21:33N 53°46' E 006°30'8 8.2
2016-May-29 20:33N 53°44' E 006°17'8 8.4
2016-May-29 19:33N 53°41' E 006°03'8 8.4
2016-May-29 18:33N 53°39' E 005°50'8 8.3
2016-May-29 17:33N 53°36' E 005°37'8 8.2
2016-May-29 16:33N 53°34' E 005°24'9 8.6
2016-May-29 15:33N 53°31' E 005°10'1211.7
2016-May-29 14:30N 53°26' E 004°51'1111.0
2016-May-29 13:28N 53°18' E 004°38'1212.0
2016-May-29 12:29N 53°07' E 004°29'1312.3
2016-May-29 11:25N 52°56' E 004°18'1112.7
2016-May-29 10:32N 52°46' E 004°09'3213.1
2016-May-29 08:07N 52°16' E 003°52'814.0
2016-May-29 07:33N 52°08' E 003°55'1111.1
2016-May-29 06:33N 51°59' E 004°05'1110.8
2016-May-29 05:32N 51°54' E 004°21'1 0.6
2016-May-29 04:17N 51°54' E 004°22'0 0.0
2016-May-29 03:32N 51°54' E 004°22'0 0.0
2016-May-29 02:11N 51°54' E 004°22'0 0.0
2016-May-29 01:33N 51°54' E 004°22'0 0.0
2016-May-29 00:31N 51°54' E 004°22'0 0.0
2016-May-28 23:33N 51°54' E 004°22'0 0.0
2016-May-28 22:34N 51°54' E 004°22'0 0.0
2016-May-28 21:32N 51°54' E 004°22'0 0.0
2016-May-28 20:32N 51°54' E 004°22'0 0.0
2016-May-28 19:32N 51°54' E 004°22'0 0.0
2016-May-28 18:16N 51°54' E 004°22'0 0.0
2016-May-28 15:24N 51°54' E 004°22'4 4.8
2016-May-28 14:30N 51°55' E 004°15'7 7.2
2016-May-28 13:32N 51°58' E 004°06'4 3.1
2016-May-28 12:20N 51°56' E 004°11'0 0.0
2016-May-28 10:23N 51°56' E 004°11'0 0.0
2016-May-28 09:23N 51°56' E 004°11'0 0.0
2016-May-28 08:33N 51°56' E 004°11'0 0.0
2016-May-28 06:09N 51°56' E 004°11'0 0.0
2016-May-28 04:30N 51°56' E 004°11'0 0.0
2016-May-28 03:28N 51°56' E 004°11'0 0.0
2016-May-28 02:32N 51°56' E 004°11'0 0.0
2016-May-28 01:33N 51°56' E 004°11'0 0.0
2016-May-28 00:26N 51°56' E 004°11'0 0.0
2016-May-27 23:33N 51°56' E 004°11'0 0.0
2016-May-27 22:30N 51°56' E 004°11'0 0.0
2016-May-27 21:22N 51°56' E 004°11'1 0.9
2016-May-27 20:31N 51°57' E 004°10'1111.0
2016-May-27 19:34N 52°01' E 003°54'10 9.7
2016-May-27 18:33N 52°08' E 003°42'0 0.1
2016-May-27 17:25N 52°08' E 003°42'0 0.2
2016-May-27 16:25N 52°08' E 003°42'0 0.1
2016-May-27 15:25N 52°08' E 003°42'0 0.0
2016-May-27 14:31N 52°08' E 003°42'0 0.1
2016-May-27 13:31N 52°08' E 003°42'1111.0
2016-May-27 12:33N 52°02' E 003°57'2 2.1
2016-May-27 11:33N 51°60' E 003°58'10 9.6
2016-May-27 10:33N 52°06' E 003°46'4 3.0
2016-May-27 09:22N 52°09' E 003°44'0 0.2
2016-May-27 08:28N 52°09' E 003°44'0 0.0
2016-May-27 07:07N 52°09' E 003°44'0 0.0
2016-May-27 05:19N 52°09' E 003°44'0 0.0
2016-May-27 04:32N 52°09' E 003°44'0 0.0
2016-May-26 23:24N 52°09' E 003°44'0 0.0
2016-May-26 22:32N 52°09' E 003°44'0 0.0
2016-May-26 21:32N 52°09' E 003°44'0 0.0
2016-May-26 20:32N 52°09' E 003°44'0 0.1
2016-May-26 19:32N 52°09' E 003°44'0 0.0
2016-May-26 18:32N 52°09' E 003°44'0 0.0
2016-May-26 17:32N 52°09' E 003°44'0 0.0
2016-May-26 16:26N 52°09' E 003°44'0 0.2
2016-May-26 15:32N 52°09' E 003°44'0 0.1
2016-May-26 14:32N 52°09' E 003°44'0 0.0
2016-May-26 13:20N 52°09' E 003°44'0 0.0
2016-May-26 12:17N 52°09' E 003°44'0 0.0
2016-May-26 11:26N 52°09' E 003°44'0 0.0
2016-May-26 10:29N 52°09' E 003°44'0 0.0
2016-May-26 08:32N 52°09' E 003°44'0 0.1
2016-May-26 07:32N 52°09' E 003°44'0 0.0
2016-May-26 06:23N 52°09' E 003°44'0 0.0
2016-May-26 05:29N 52°09' E 003°44'0 0.0
2016-May-26 04:08N 52°09' E 003°44'0 0.0
2016-May-25 19:22N 52°09' E 003°44'0 0.0
2016-May-25 18:28N 52°09' E 003°44'0 0.0
2016-May-25 17:28N 52°09' E 003°44'2 2.5
2016-May-25 16:34N 52°11' E 003°46'9311.6
2016-May-25 08:33N 53°33' E 004°57'1110.8
2016-May-25 07:33N 53°37' E 005°13'1111.1
2016-May-25 06:33N 53°40' E 005°31'1212.2
2016-May-25 05:33N 53°44' E 005°51'1313.0
2016-May-25 04:33N 53°48' E 006°12'1313.0
2016-May-25 03:33N 53°52' E 006°33'1312.7
2016-May-25 02:34N 53°55' E 006°54'1212.1
2016-May-25 01:33N 53°57' E 007°14'1211.5
2016-May-25 00:33N 54°00' E 007°33'1111.2
2016-May-24 23:33N 54°02' E 007°52'1111.1
2016-May-24 22:33N 54°01' E 008°11'1210.9
2016-May-24 21:30N 53°58' E 008°30'1313.5
2016-May-24 20:33N 53°51' E 008°47'1313.3
2016-May-24 19:33N 53°54' E 009°09'0 0.2
2016-May-24 18:33N 53°54' E 009°09'7 6.5
2016-May-24 17:33N 53°59' E 009°16'6 5.7
2016-May-24 16:33N 54°04' E 009°19'9 4.6
2016-May-24 14:33N 54°11' E 009°29'7 6.9
2016-May-24 13:31N 54°16' E 009°38'8 7.9
2016-May-24 12:33N 54°21' E 009°47'6 6.2
2016-May-24 11:34N 54°21' E 009°57'6 6.1
2016-May-24 10:33N 54°22' E 010°07'1 0.8
2016-May-24 09:33N 54°22' E 010°09'9 8.6
2016-May-24 08:33N 54°29' E 010°17'1312.7
2016-May-24 07:33N 54°35' E 010°36'1312.9
2016-May-24 06:33N 54°36' E 010°59'1212.2
2016-May-24 05:33N 54°33' E 011°19'1312.7
2016-May-24 04:33N 54°28' E 011°39'1312.7
2016-May-24 03:33N 54°26' E 012°01'1110.6
2016-May-24 02:30N 54°34' E 012°14'1212.3
2016-May-24 01:33N 54°42' E 012°29'2512.7
2016-May-23 23:33N 54°53' E 013°08'1312.8
2016-May-23 22:34N 54°57' E 013°29'1312.8
2016-May-23 21:33N 55°02' E 013°50'1212.2
2016-May-23 20:34N 55°08' E 014°09'1312.8
2016-May-23 19:33N 55°18' E 014°23'1312.8
2016-May-23 18:34N 55°27' E 014°38'1313.0
2016-May-23 17:33N 55°34' E 014°58'1312.9
2016-May-23 16:34N 55°40' E 015°18'1312.8
2016-May-23 15:31N 55°47' E 015°38'1212.7
2016-May-23 14:33N 55°53' E 015°57'29412.7
2016-May-22 15:30N 59°25' E 022°18'1212.6
2016-May-22 14:33N 59°31' E 022°37'1312.8
2016-May-22 13:33N 59°35' E 023°02'1313.0
2016-May-22 12:33N 59°39' E 023°26'1312.8
2016-May-22 11:33N 59°43' E 023°50'1612.9
2016-May-22 10:17N 59°47' E 024°22'8612.8
2016-May-22 03:33N 60°01' E 027°11'1313.4
2016-May-22 02:33N 60°09' E 027°34'1211.9
2016-May-22 01:33N 60°11' E 027°58'1312.9
2016-May-22 00:33N 60°06' E 028°22'1312.9
2016-May-21 23:33N 60°03' E 028°47'2512.5
2016-May-21 21:32N 60°00' E 029°37'1111.2
2016-May-21 20:33N 59°56' E 029°57'8 8.2
2016-May-21 19:32N 59°52' E 030°12'1 0.8
2016-May-21 18:33N 59°52' E 030°13'0 0.0
2016-May-21 17:33N 59°52' E 030°13'0 0.0
2016-May-21 16:33N 59°52' E 030°13'0 0.0
2016-May-21 15:33N 59°52' E 030°13'0 0.0
2016-May-21 14:33N 59°52' E 030°13'0 0.0
2016-May-21 13:33N 59°52' E 030°13'0 0.0
2016-May-21 12:33N 59°52' E 030°13'0 0.0
2016-May-21 11:33N 59°52' E 030°13'0 0.0
2016-May-21 10:33N 59°52' E 030°13'0 0.0
2016-May-21 09:33N 59°52' E 030°13'0 0.0
2016-May-21 08:33N 59°52' E 030°13'0 0.0
2016-May-21 07:33N 59°52' E 030°13'  

Dump ship's entire track history